Time;durP1;ratioP1;P1;durP2;ratioP2;P2;SDS_P1;SDS_P2;PMS_P1;PMS_P2;Temp;Humidity;BMP_temperature;BMP_pressure;BME280_temperature;BME280_humidity;BME280_pressure;Samples;Min_cycle;Max_cycle;Signal;HPM_P1;HPM_P2
2023/04/19 00:00:29;;;;;;;1.30;0.75;;;;;;;9.78;100.00;99981.97;6123906;23;20273;-92
2023/04/19 00:02:54;;;;;;;0.70;0.70;;;;;;;9.78;100.00;99995.81;6123453;23;20022;-91
2023/04/19 00:05:23;;;;;;;0.65;0.65;;;;;;;9.63;100.00;99970.44;6123504;23;20040;-91
2023/04/19 00:07:49;;;;;;;0.63;0.63;;;;;;;9.78;100.00;99995.81;6123714;23;20020;-91
2023/04/19 00:10:15;;;;;;;3.75;1.45;;;;;;;9.82;100.00;100005.63;6098719;23;20069;-91
2023/04/19 00:12:40;;;;;;;0.25;0.25;;;;;;;9.50;100.00;99966.03;6098965;23;20010;-91
2023/04/19 00:15:06;;;;;;;2.17;1.50;;;;;;;9.61;100.00;99983.16;6123166;23;20010;-91
2023/04/19 00:17:32;;;;;;;1.30;1.13;;;;;;;9.73;100.00;99994.34;6121540;23;20354;-91
2023/04/19 00:19:58;;;;;;;1.95;1.83;;;;;;;9.70;100.00;99991.66;6148179;23;20040;-91
2023/04/19 00:22:23;;;;;;;1.00;0.90;;;;;;;9.58;100.00;99973.75;6122603;23;20080;-92
2023/04/19 00:24:49;;;;;;;1.45;1.27;;;;;;;9.53;100.00;99959.63;6099175;23;20021;-92
2023/04/19 00:27:14;;;;;;;0.65;0.55;;;;;;;9.44;100.00;99951.91;6123535;23;20089;-91
2023/04/19 00:29:40;;;;;;;1.15;1.08;;;;;;;9.40;100.00;99948.44;6123221;23;20014;-91
2023/04/19 00:32:07;;;;;;;0.63;0.63;;;;;;;9.69;100.00;99992.88;6098680;23;20115;-92
2023/04/19 00:34:33;;;;;;;0.70;0.70;;;;;;;9.36;100.00;99942.22;6123220;23;20020;-91
2023/04/19 00:36:58;;;;;;;0.90;0.80;;;;;;;9.59;100.00;99991.13;6122742;23;20006;-92
2023/04/19 00:39:24;;;;;;;0.43;0.43;;;;;;;9.44;100.00;99962.22;6124166;23;20137;-92
2023/04/19 00:41:50;;;;;;;1.25;1.17;;;;;;;9.51;100.00;99968.34;6148609;23;20420;-92
2023/04/19 00:44:17;;;;;;;1.20;0.93;;;;;;;9.61;100.00;99980.41;6148316;23;20399;-92
2023/04/19 00:46:43;;;;;;;1.02;0.98;;;;;;;9.58;100.00;99989.59;6122504;23;20009;-91
2023/04/19 00:49:08;;;;;;;0.75;0.75;;;;;;;9.58;100.00;99978.50;6074394;23;20017;-92
2023/04/19 00:51:34;;;;;;;1.10;1.02;;;;;;;9.42;100.00;99959.09;6124282;23;20017;-91
2023/04/19 00:54:02;;;;;;;1.08;0.88;;;;;;;9.43;100.00;99960.66;6098869;23;20009;-91
2023/04/19 00:56:28;;;;;;;3.15;1.35;;;;;;;9.48;100.00;99976.75;6123051;23;20037;-91
2023/04/19 00:58:55;;;;;;;7.07;1.02;;;;;;;9.36;100.00;99945.78;6098309;23;20032;-91
2023/04/19 01:01:21;;;;;;;2.05;1.38;;;;;;;9.44;100.00;99970.50;6123262;23;20529;-91
2023/04/19 01:03:48;;;;;;;0.90;0.88;;;;;;;9.29;100.00;99948.72;6123250;23;20112;-92
2023/04/19 01:06:14;;;;;;;0.93;0.88;;;;;;;9.26;100.00;99946.78;6122369;23;20034;-91
2023/04/19 01:08:40;;;;;;;0.75;0.75;;;;;;;9.05;100.00;99916.84;6075444;23;20454;-91
2023/04/19 01:11:09;;;;;;;0.52;0.52;;;;;;;9.22;100.00;99934.25;6123600;23;20022;-92
2023/04/19 01:13:35;;;;;;;0.73;0.47;;;;;;;9.04;100.00;99922.78;6123150;23;20017;-91
2023/04/19 01:16:01;;;;;;;1.02;0.90;;;;;;;9.10;100.00;99937.69;6149886;23;20444;-91
2023/04/19 01:18:31;;;;;;;1.02;0.98;;;;;;;8.98;100.00;99919.75;6098151;23;20464;-93
2023/04/19 01:21:00;;;;;;;0.63;0.63;;;;;;;9.13;100.00;99936.81;6102658;23;20020;-91
2023/04/19 01:23:25;;;;;;;4.80;2.35;;;;;;;9.04;100.00;99918.03;6151269;23;20060;-92
2023/04/19 01:25:51;;;;;;;0.90;0.90;;;;;;;9.29;100.00;99942.38;6123616;23;20021;-90
2023/04/19 01:28:17;;;;;;;0.20;0.20;;;;;;;9.15;100.00;99918.56;6126074;23;20068;-91
2023/04/19 01:30:42;;;;;;;0.55;0.55;;;;;;;9.09;100.00;99909.25;6123601;23;20402;-91
2023/04/19 01:33:08;;;;;;;0.35;0.35;;;;;;;9.12;100.00;99907.59;6125577;23;20349;-91
2023/04/19 01:35:34;;;;;;;0.40;0.40;;;;;;;9.34;100.00;99941.88;6148712;23;20018;-92
2023/04/19 01:37:59;;;;;;;0.60;0.60;;;;;;;9.33;100.00;99941.09;6124147;23;20048;-92
2023/04/19 01:40:25;;;;;;;0.85;0.85;;;;;;;9.33;100.00;99929.25;6101038;23;20025;-91
2023/04/19 01:42:51;;;;;;;1.70;0.88;;;;;;;9.23;100.00;99900.59;6097470;23;20013;-91
2023/04/19 01:45:17;;;;;;;0.93;0.85;;;;;;;9.08;100.00;99870.91;6121949;23;20021;-92
2023/04/19 01:47:43;;;;;;;1.58;1.23;;;;;;;9.25;100.00;99912.03;6098431;23;20017;-92
2023/04/19 01:50:08;;;;;;;1.98;1.00;;;;;;;9.40;100.00;99936.59;6100170;23;20053;-91
2023/04/19 01:52:34;;;;;;;1.02;0.98;;;;;;;9.39;100.00;99930.28;6101452;23;20453;-92
2023/04/19 01:55:00;;;;;;;1.02;1.02;;;;;;;9.35;100.00;99944.19;6149174;23;20454;-92
2023/04/19 01:57:25;;;;;;;1.38;1.27;;;;;;;9.28;100.00;99927.78;6100381;23;20013;-91
2023/04/19 01:59:52;;;;;;;1.25;1.08;;;;;;;9.21;100.00;99916.88;6125076;23;20017;-92
2023/04/19 02:02:18;;;;;;;1.63;1.52;;;;;;;9.16;100.00;99909.06;6148756;23;20423;-92
2023/04/19 02:04:44;;;;;;;0.95;0.95;;;;;;;9.00;100.00;99877.81;6077096;23;20055;-92
2023/04/19 02:07:10;;;;;;;1.45;1.35;;;;;;;9.14;100.00;99903.16;6124202;23;20013;-92
2023/04/19 02:09:36;;;;;;;2.00;1.67;;;;;;;9.07;100.00;99895.03;6150697;23;20010;-91
2023/04/19 02:12:03;;;;;;;1.75;1.17;;;;;;;8.95;100.00;99881.09;6125243;23;20021;-91
2023/04/19 02:14:29;;;;;;;1.52;1.42;;;;;;;9.08;100.00;99896.59;6100012;23;20024;-91
2023/04/19 02:16:55;;;;;;;0.60;0.60;;;;;;;9.04;100.00;99895.91;6100690;23;20014;-91
2023/04/19 02:19:20;;;;;;;1.00;0.50;;;;;;;9.01;100.00;99902.31;6124208;23;20462;-91
2023/04/19 02:21:46;;;;;;;4.13;1.95;;;;;;;9.08;100.00;99915.19;6148722;23;19997;-91
2023/04/19 02:24:13;;;;;;;0.77;0.75;;;;;;;9.03;100.00;99907.41;6150785;23;20017;-91
2023/04/19 02:26:38;;;;;;;1.63;1.52;;;;;;;9.04;100.00;99915.28;6123750;23;20430;-92
2023/04/19 02:29:05;;;;;;;2.90;1.45;;;;;;;9.04;100.00;99909.75;6100264;23;20096;-92
2023/04/19 02:31:30;;;;;;;0.88;0.80;;;;;;;8.92;100.00;99902.09;6099707;23;20010;-92
2023/04/19 02:33:56;;;;;;;0.75;0.68;;;;;;;8.93;100.00;99898.16;6099475;23;20035;-91
2023/04/19 02:36:21;;;;;;;1.65;1.40;;;;;;;8.82;100.00;99884.53;6151366;23;20092;-91
2023/04/19 02:38:47;;;;;;;1.27;0.95;;;;;;;8.87;100.00;99886.00;6149037;23;20084;-91
2023/04/19 02:41:13;;;;;;;2.28;1.42;;;;;;;9.00;100.00;99905.50;6100099;23;20013;-91
2023/04/19 02:43:38;;;;;;;1.75;1.48;;;;;;;8.92;100.00;99893.81;6075762;23;20037;-90
2023/04/19 02:46:04;;;;;;;1.10;1.05;;;;;;;9.00;100.00;99895.22;6075169;23;20017;-91
2023/04/19 02:48:30;;;;;;;1.55;1.45;;;;;;;9.00;100.00;99895.22;6097732;23;20036;-92
2023/04/19 02:50:55;;;;;;;1.73;1.52;;;;;;;8.98;100.00;99888.56;6098759;23;20037;-91
2023/04/19 02:53:22;;;;;;;0.40;0.30;;;;;;;8.91;100.00;99892.25;6100926;23;20014;-91
2023/04/19 02:55:49;;;;;;;1.30;1.20;;;;;;;8.66;100.00;99847.75;6123669;23;20030;-91
2023/04/19 02:58:19;;;;;;;2.13;1.95;;;;;;;8.91;100.00;99892.25;6115701;23;20045;-92
2023/04/19 03:00:56;;;;;;;1.48;1.40;;;;;;;8.89;100.00;99895.47;6079884;23;20017;-92
2023/04/19 03:03:22;;;;;;;2.80;1.27;;;;;;;8.66;100.00;99864.34;6124203;23;20509;-91
2023/04/19 03:05:47;;;;;;;4.28;2.33;;;;;;;8.73;100.00;99872.50;6099411;23;20059;-91
2023/04/19 03:08:13;;;;;;;0.47;0.47;;;;;;;8.72;100.00;99876.47;6124446;23;20021;-92
2023/04/19 03:10:39;;;;;;;0.77;0.77;;;;;;;8.74;100.00;99885.09;6123442;23;20369;-91
2023/04/19 03:13:05;;;;;;;1.42;1.33;;;;;;;8.42;100.00;99834.06;6099962;23;20013;-91
2023/04/19 03:15:30;;;;;;;4.07;1.55;;;;;;;8.60;100.00;99857.78;6098383;23;20072;-92
2023/04/19 03:17:56;;;;;;;2.63;2.08;;;;;;;8.65;100.00;99865.56;6150257;23;20100;-92
2023/04/19 03:20:22;;;;;;;2.42;1.67;;;;;;;8.62;100.00;99864.44;6075673;23;20025;-91
2023/04/19 03:22:48;;;;;;;0.47;0.47;;;;;;;8.62;100.00;99860.88;6098656;23;20040;-92
2023/04/19 03:25:14;;;;;;;2.80;2.58;;;;;;;8.61;100.00;99857.38;6100150;23;20018;-92
2023/04/19 03:27:44;;;;;;;1.35;1.27;;;;;;;8.60;100.00;99863.31;6099074;23;20010;-91
2023/04/19 03:30:12;;;;;;;1.33;1.08;;;;;;;8.34;100.00;99827.13;6099732;23;20044;-91
2023/04/19 03:32:38;;;;;;;3.40;2.67;;;;;;;8.46;100.00;99847.00;6075792;23;20021;-92
2023/04/19 03:35:06;;;;;;;1.27;1.17;;;;;;;8.24;100.00;99814.28;6099725;23;20014;-91
2023/04/19 03:37:31;;;;;;;2.65;2.10;;;;;;;8.25;100.00;99817.84;6118241;23;20087;-91
2023/04/19 03:39:57;;;;;;;0.80;0.80;;;;;;;8.37;100.00;99829.00;6098916;23;20006;-91
2023/04/19 03:42:30;;;;;;;0.85;0.85;;;;;;;8.46;100.00;99850.56;6101956;23;20021;-92
2023/04/19 03:45:05;;;;;;;1.67;1.55;;;;;;;8.49;100.00;99860.00;6078423;23;20051;-92
2023/04/19 03:47:34;;;;;;;0.77;0.77;;;;;;;8.50;100.00;99858.78;6099737;23;20017;-92
2023/04/19 03:50:01;;;;;;;1.33;1.23;;;;;;;8.42;100.00;99849.84;6088943;23;20017;-92
2023/04/19 03:52:29;;;;;;;1.95;0.88;;;;;;;8.27;100.00;99838.28;6122726;23;20021;-91
2023/04/19 03:54:55;;;;;;;1.95;1.55;;;;;;;8.41;100.00;99849.06;6100989;23;20013;-90
2023/04/19 03:57:36;;;;;;;8.07;0.95;;;;;;;8.20;100.00;99821.09;6123761;23;20472;-90
2023/04/19 04:00:09;;;;;;;1.58;1.48;;;;;;;8.38;100.00;99855.47;6102147;23;20014;-90
2023/04/19 04:02:39;;;;;;;3.03;1.40;;;;;;;8.49;100.00;99860.78;6102420;23;20104;-91
2023/04/19 04:05:05;;;;;;;2.75;1.33;;;;;;;8.50;100.00;99865.09;6099106;23;20060;-90
2023/04/19 04:07:32;;;;;;;2.30;2.00;;;;;;;8.49;100.00;99868.28;6099593;23;20022;-91
2023/04/19 04:09:58;;;;;;;1.40;1.30;;;;;;;8.36;100.00;99849.59;6123919;23;20365;-92
2023/04/19 04:12:23;;;;;;;0.35;0.35;;;;;;;8.48;100.00;99866.72;6147779;23;20346;-92
2023/04/19 04:14:51;;;;;;;2.22;2.13;;;;;;;8.48;100.00;99864.75;6076149;23;20024;-90
2023/04/19 04:17:17;;;;;;;4.90;2.67;;;;;;;8.40;100.00;99855.81;6074457;23;20437;-91
2023/04/19 04:19:43;;;;;;;2.10;1.98;;;;;;;8.43;100.00;99857.72;6100458;23;20480;-92
2023/04/19 04:22:09;;;;;;;2.17;1.98;;;;;;;8.39;100.00;99851.50;6123362;23;20029;-92
2023/04/19 04:24:40;;;;;;;1.52;1.38;;;;;;;8.47;100.00;99873.44;6099955;23;20020;-92
2023/04/19 04:27:20;;;;;;;5.70;2.35;;;;;;;8.48;100.00;99861.97;6101131;23;20481;-91
2023/04/19 04:29:48;;;;;;;1.42;1.33;;;;;;;8.32;100.00;99845.34;6098308;23;20017;-92
2023/04/19 04:32:16;;;;;;;2.95;1.40;;;;;;;8.39;100.00;99857.03;6098496;23;20018;-92
2023/04/19 04:34:43;;;;;;;1.40;1.08;;;;;;;8.49;100.00;99868.28;6123402;23;20068;-91
2023/04/19 04:37:24;;;;;;;2.17;2.05;;;;;;;8.53;100.00;99867.00;6100779;23;20088;-91
2023/04/19 04:39:51;;;;;;;1.73;1.63;;;;;;;8.24;100.00;99839.16;6075976;23;20049;-90
2023/04/19 04:42:17;;;;;;;0.80;0.80;;;;;;;8.48;100.00;99875.03;6099306;23;20009;-92
2023/04/19 04:44:43;;;;;;;2.22;2.03;;;;;;;8.32;100.00;99846.13;6098964;23;20031;-93
2023/04/19 04:47:12;;;;;;;4.22;2.72;;;;;;;8.55;100.00;99875.66;6070751;23;20025;-92
2023/04/19 04:49:43;;;;;;;4.43;2.15;;;;;;;8.48;100.00;99858.44;6097626;23;20041;-92
2023/04/19 04:52:09;;;;;;;2.53;2.20;;;;;;;8.49;100.00;99848.94;6120177;23;20044;-91
2023/04/19 04:54:42;;;;;;;1.75;1.65;;;;;;;8.59;100.00;99864.50;6098252;23;20001;-92
2023/04/19 04:57:18;;;;;;;2.15;1.95;;;;;;;8.72;100.00;99873.72;6097559;23;20044;-90
2023/04/19 04:59:46;;;;;;;1.58;1.48;;;;;;;8.63;100.00;99856.91;6095997;23;20063;-91
2023/04/19 05:02:13;;;;;;;0.93;0.88;;;;;;;8.74;100.00;99876.81;6120552;23;20409;-92
2023/04/19 05:04:39;;;;;;;0.82;0.82;;;;;;;8.60;100.00;99838.44;6095887;23;20064;-92
2023/04/19 05:07:05;;;;;;;2.08;1.88;;;;;;;8.84;100.00;99864.75;6095142;23;20104;-93
2023/04/19 05:09:31;;;;;;;2.75;2.42;;;;;;;8.74;100.00;99846.41;6121983;23;20028;-92
2023/04/19 05:11:57;;;;;;;2.92;2.72;;;;;;;8.90;100.00;99857.50;6120699;23;20025;-91
2023/04/19 05:14:23;;;;;;;3.03;2.72;;;;;;;8.92;100.00;99849.56;6144474;23;20025;-91
2023/04/19 05:16:50;;;;;;;6.03;3.17;;;;;;;8.94;100.00;99844.34;6145861;23;20337;-93
2023/04/19 05:19:16;;;;;;;1.63;1.45;;;;;;;8.87;100.00;99822.41;6097400;23;20005;-92
2023/04/19 05:21:47;;;;;;;1.38;1.33;;;;;;;9.10;100.00;99855.44;6122228;23;20017;-91
2023/04/19 05:24:14;;;;;;;3.47;1.90;;;;;;;9.18;100.00;99861.59;6097755;23;20024;-92
2023/04/19 05:26:40;;;;;;;7.25;2.35;;;;;;;9.19;100.00;99852.84;6124080;23;20493;-92
2023/04/19 05:29:07;;;;;;;5.70;2.67;;;;;;;9.20;100.00;99848.88;6123774;23;20092;-92
2023/04/19 05:31:53;;;;;;;1.75;1.23;;;;;;;9.27;100.00;99857.00;6127133;23;20170;-92
2023/04/19 05:34:29;;;;;;;1.95;1.85;;;;;;;9.34;100.00;99862.38;6126444;23;20473;-91
2023/04/19 05:36:56;;;;;;;2.72;2.53;;;;;;;9.21;100.00;99835.84;6100632;23;20020;-92
2023/04/19 05:39:21;;;;;;;1.20;1.10;;;;;;;9.14;100.00;99828.47;6124614;23;20005;-91
2023/04/19 05:41:47;;;;;;;1.30;1.17;;;;;;;9.28;100.00;99832.88;6124835;23;20354;-92
2023/04/19 05:44:13;;;;;;;2.00;1.80;;;;;;;9.36;100.00;99851.66;6124384;23;20009;-92
2023/04/19 05:46:38;;;;;;;1.77;1.67;;;;;;;9.50;100.00;99860.81;6123807;23;20002;-91
2023/04/19 05:49:07;;;;;;;3.17;2.40;;;;;;;9.38;100.00;99835.38;6148130;23;20021;-91
2023/04/19 05:51:58;;;;;;;0.93;0.90;;;;;;;9.45;100.00;99836.41;6124298;23;20439;-91
2023/04/19 05:54:53;;;;;;;1.08;1.08;;;;;;;9.64;100.00;99866.00;6140181;23;20037;-92
2023/04/19 05:57:19;;;;;;;4.40;3.83;;;;;;;9.66;100.00;99858.81;6149066;23;20009;-92
2023/04/19 05:59:45;;;;;;;2.63;2.42;;;;;;;9.64;100.00;99852.13;6099423;23;20033;-92
2023/04/19 06:02:15;;;;;;;1.48;1.38;;;;;;;9.72;100.00;99862.59;6124367;23;20422;-92
2023/04/19 06:04:40;;;;;;;2.28;2.10;;;;;;;9.75;100.00;99863.72;6076398;23;20028;-92
2023/04/19 06:07:06;;;;;;;2.42;2.20;;;;;;;9.72;100.00;99851.53;6101966;23;20333;-93
2023/04/19 06:09:32;;;;;;;1.88;1.77;;;;;;;9.84;100.00;99863.88;6077894;23;20024;-93
2023/04/19 06:11:58;;;;;;;2.60;2.20;;;;;;;9.80;100.00;99857.66;6076558;23;20393;-91
2023/04/19 06:14:26;;;;;;;2.08;1.98;;;;;;;9.86;100.00;99849.59;6125537;23;20022;-92
2023/04/19 06:16:52;;;;;;;1.55;1.45;;;;;;;9.74;100.00;99828.94;6101307;23;20005;-92
2023/04/19 06:19:17;;;;;;;1.63;1.50;;;;;;;9.81;100.00;99825.97;6149429;23;20411;-93
2023/04/19 06:21:43;;;;;;;0.77;0.77;;;;;;;10.12;100.00;99863.09;6102297;23;20147;-93
2023/04/19 06:24:08;;;;;;;3.20;2.50;;;;;;;10.17;100.00;99864.59;6126091;23;20506;-92
2023/04/19 06:26:34;;;;;;;2.70;2.50;;;;;;;10.17;100.00;99865.38;6126444;23;20167;-92
2023/04/19 06:29:00;;;;;;;3.15;2.85;;;;;;;10.25;100.00;99863.97;6101077;23;20024;-92
2023/04/19 06:31:25;;;;;;;1.30;1.25;;;;;;;10.32;100.00;99849.13;6101621;23;20028;-92
2023/04/19 06:33:51;;;;;;;5.43;2.90;;;;;;;10.22;100.00;99833.56;6151971;23;20017;-92
2023/04/19 06:36:16;;;;;;;0.70;0.70;;;;;;;10.26;100.00;99823.94;6126584;23;20483;-93
2023/04/19 06:38:43;;;;;;;2.88;2.65;;;;;;;10.37;100.00;99848.56;6150712;23;20096;-93
2023/04/19 06:41:09;;;;;;;2.15;1.58;;;;;;;10.44;100.00;99851.13;6125875;23;20014;-92
2023/04/19 06:43:35;;;;;;;1.42;1.20;;;;;;;10.39;100.00;99848.16;6101089;23;20028;-91
2023/04/19 06:46:03;;;;;;;2.63;1.67;;;;;;;10.44;100.00;99844.81;6125312;23;20017;-92
2023/04/19 06:48:29;;;;;;;3.67;3.33;;;;;;;10.61;100.00;99866.50;6077672;23;20024;-91
2023/04/19 06:50:55;;;;;;;1.58;1.48;;;;;;;10.55;100.00;99870.25;6151401;23;20105;-92
2023/04/19 06:53:21;;;;;;;2.42;1.88;;;;;;;10.28;100.00;99826.25;6151341;23;20037;-91
2023/04/19 06:55:47;;;;;;;3.45;3.20;;;;;;;10.49;100.00;99852.59;6125685;23;20129;-90
2023/04/19 06:58:12;;;;;;;2.72;2.53;;;;;;;10.54;100.00;99860.38;6126123;23;20017;-91
2023/04/19 07:00:38;;;;;;;1.92;1.52;;;;;;;10.58;100.00;99872.16;6100781;23;20021;-91
2023/04/19 07:03:03;;;;;;;1.55;1.10;;;;;;;10.47;100.00;99850.28;6101399;23;20017;-91
2023/04/19 07:05:30;;;;;;;4.18;3.83;;;;;;;10.51;100.00;99855.72;6152053;23;20461;-91
2023/04/19 07:07:56;;;;;;;3.60;2.88;;;;;;;10.59;100.00;99868.16;6151818;23;20021;-91
2023/04/19 07:10:21;;;;;;;3.15;2.83;;;;;;;10.32;100.00;99831.69;6125653;23;20037;-91
2023/04/19 07:12:47;;;;;;;1.23;1.13;;;;;;;10.52;100.00;99846.94;6125759;23;20442;-92
2023/04/19 07:15:12;;;;;;;3.97;2.65;;;;;;;10.67;100.00;99863.94;6100649;23;20096;-92
2023/04/19 07:17:39;;;;;;;1.55;1.45;;;;;;;10.51;100.00;99833.53;6125101;23;20081;-92
2023/04/19 07:20:05;;;;;;;2.63;2.30;;;;;;;10.64;100.00;99853.72;6101398;23;20021;-91
2023/04/19 07:22:31;;;;;;;5.57;3.00;;;;;;;10.71;100.00;99859.09;6126162;23;20005;-91
2023/04/19 07:24:57;;;;;;;9.50;1.88;;;;;;;10.90;100.00;99874.75;6126045;23;20021;-92
2023/04/19 07:27:23;;;;;;;3.00;2.80;;;;;;;10.91;100.00;99862.44;6125711;23;20348;-91
2023/04/19 07:29:49;;;;;;;2.28;1.77;;;;;;;10.93;100.00;99876.63;6125183;23;20536;-92
2023/04/19 07:32:15;;;;;;;1.23;1.20;;;;;;;10.86;100.00;99859.41;6151761;23;20072;-92
2023/04/19 07:34:42;;;;;;;2.20;2.00;;;;;;;10.91;100.00;99876.31;6125439;23;20437;-91
2023/04/19 07:37:08;;;;;;;1.50;0.93;;;;;;;10.81;100.00;99849.63;6101348;23;20323;-92
2023/04/19 07:39:33;;;;;;;4.10;2.38;;;;;;;10.88;100.00;99846.63;6125408;23;20021;-91
2023/04/19 07:42:00;;;;;;;8.30;2.35;;;;;;;10.87;100.00;99844.31;6125612;23;20339;-92
2023/04/19 07:44:26;;;;;;;4.80;4.32;;;;;;;10.84;100.00;99845.97;6142291;23;20045;-92
2023/04/19 07:46:52;;;;;;;2.95;2.75;;;;;;;10.86;100.00;99826.91;6125268;23;20128;-92
2023/04/19 07:49:17;;;;;;;5.57;3.13;;;;;;;11.03;100.00;99850.56;6125355;23;20049;-92
2023/04/19 07:51:43;;;;;;;4.03;3.58;;;;;;;11.29;100.00;99865.16;6125845;23;20014;-94
2023/04/19 07:54:09;;;;;;;5.22;3.83;;;;;;;11.28;100.00;99844.19;6125386;23;20024;-92
2023/04/19 07:56:34;;;;;;;1.70;1.60;;;;;;;11.41;100.00;99871.94;6151595;23;20033;-92
2023/04/19 07:59:00;;;;;;;2.08;1.98;;;;;;;11.33;100.00;99842.84;6099957;23;20741;-92
2023/04/19 08:01:26;;;;;;;2.58;2.38;;;;;;;11.64;100.00;99868.78;6100421;23;20028;-92
2023/04/19 08:03:51;;;;;;;6.95;3.28;;;;;;;11.49;100.00;99856.59;6124353;23;20065;-92
2023/04/19 08:06:17;;;;;;;6.43;2.85;;;;;;;11.44;100.00;99863.50;6100734;23;20044;-91
2023/04/19 08:08:42;;;;;;;3.42;3.13;;;;;;;11.31;100.00;99856.41;6151377;23;20005;-91
2023/04/19 08:11:08;;;;;;;1.55;1.17;;;;;;;11.39;100.00;99874.38;6125336;23;20040;-93
2023/04/19 08:13:33;;;;;;;1.25;1.17;;;;;;;11.38;100.00;99875.59;6100372;23;20659;-93
2023/04/19 08:15:59;;;;;;;4.90;3.20;;;;;;;11.24;100.00;99851.88;6100454;23;20442;-92
2023/04/19 08:18:25;;;;;;;1.45;1.38;;;;;;;11.36;100.00;99853.06;6124475;23;20013;-93
2023/04/19 08:20:51;;;;;;;1.05;1.05;;;;;;;11.23;100.00;99848.31;6151789;23;20009;-92
2023/04/19 08:23:17;;;;;;;3.53;3.05;;;;;;;11.21;100.00;99847.19;6124660;23;20006;-91
2023/04/19 08:25:42;;;;;;;2.35;2.22;;;;;;;11.02;100.00;99843.44;6100670;23;20021;-91
2023/04/19 08:28:08;;;;;;;3.22;2.28;;;;;;;11.17;100.00;99847.31;6099572;23;20461;-92
2023/04/19 08:30:34;;;;;;;0.80;0.80;;;;;;;11.17;100.00;99861.19;6124700;23;20009;-92
2023/04/19 08:33:00;;;;;;;3.00;2.80;;;;;;;11.17;100.00;99863.97;6124736;23;20059;-92
2023/04/19 08:35:25;;;;;;;1.27;1.27;;;;;;;10.97;100.00;99837.66;6125060;23;20088;-92
2023/04/19 08:37:52;;;;;;;3.28;1.70;;;;;;;11.00;100.00;99843.09;6125121;23;20096;-92
2023/04/19 08:40:18;;;;;;;2.13;2.03;;;;;;;10.84;100.00;99829.31;6124539;23;20021;-92
2023/04/19 08:42:43;;;;;;;1.58;1.48;;;;;;;10.98;100.00;99875.28;6100775;23;20105;-92
2023/04/19 08:45:12;;;;;;;2.20;2.00;;;;;;;10.74;100.00;99844.31;6075854;23;20053;-92
2023/04/19 08:47:39;;;;;;;2.20;2.10;;;;;;;10.83;100.00;99847.22;6125821;23;20013;-92
2023/04/19 08:50:06;;;;;;;3.83;2.15;;;;;;;11.08;100.00;99872.19;6099384;23;20014;-93
2023/04/19 08:52:33;;;;;;;3.55;2.30;;;;;;;11.09;100.00;99861.84;6150973;23;20021;-93
2023/04/19 08:55:04;;;;;;;3.17;2.10;;;;;;;11.06;100.00;99844.09;6100469;23;20005;-93
2023/04/19 08:57:31;;;;;;;2.33;2.13;;;;;;;11.09;100.00;99845.19;6100864;23;20052;-93
2023/04/19 08:59:57;;;;;;;1.73;1.63;;;;;;;11.28;100.00;99868.41;6123614;23;20041;-92
2023/04/19 09:02:23;;;;;;;4.45;2.70;;;;;;;11.08;100.00;99822.22;6125269;23;20089;-92
2023/04/19 09:04:49;;;;;;;1.70;1.60;;;;;;;11.12;100.00;99822.88;6124207;23;20041;-93
2023/04/19 09:07:25;;;;;;;2.40;2.30;;;;;;;11.45;100.00;99861.47;6100725;23;20009;-92
2023/04/19 09:10:06;;;;;;;2.15;1.90;;;;;;;11.52;100.00;99852.94;6150873;23;20136;-92
2023/04/19 09:12:31;;;;;;;1.63;1.52;;;;;;;11.60;100.00;99854.25;6101002;23;20013;-91
2023/04/19 09:14:57;;;;;;;3.42;2.10;;;;;;;11.46;100.00;99829.72;6097889;23;20023;-90
2023/04/19 09:17:22;;;;;;;3.22;2.90;;;;;;;11.73;100.00;99848.69;6148804;23;20434;-90
2023/04/19 09:19:48;;;;;;;5.43;4.05;;;;;;;11.68;100.00;99841.66;6099831;23;20013;-91
2023/04/19 09:22:14;;;;;;;1.60;1.50;;;;;;;11.76;100.00;99854.13;6100416;23;20406;-92
2023/04/19 09:24:40;;;;;;;3.95;2.97;;;;;;;11.73;100.00;99846.66;6150470;23;20014;-91
2023/04/19 09:27:05;;;;;;;1.50;1.35;;;;;;;11.75;100.00;99832.34;6152187;23;20398;-91
2023/04/19 09:29:31;;;;;;;5.32;3.17;;;;;;;11.80;100.00;99831.75;6122105;23;20028;-90
2023/04/19 09:59:08;;;;;;;2.83;2.63;;;;;;;11.57;100.00;99852.34;6182284;23;20037;-92
2023/04/19 10:01:47;;;;;;;3.03;2.55;;;;;;;11.50;100.00;99847.03;6156367;23;20013;-92
2023/04/19 10:04:22;;;;;;;1.50;1.40;;;;;;;11.45;100.00;99855.94;6155874;23;20454;-92
2023/04/19 10:06:52;;;;;;;2.03;1.88;;;;;;;11.36;100.00;99853.06;6157822;23;20036;-92
2023/04/19 10:09:22;;;;;;;3.15;2.90;;;;;;;11.28;100.00;99849.75;6182412;23;20346;-92
2023/04/19 10:11:50;;;;;;;2.58;1.95;;;;;;;11.24;100.00;99854.66;6131193;23;20438;-91
2023/04/19 10:14:17;;;;;;;5.90;3.67;;;;;;;11.10;100.00;99847.53;6131038;23;20024;-92
2023/04/19 10:16:42;;;;;;;2.83;2.58;;;;;;;11.01;100.00;99838.31;6131553;23;20025;-90
2023/04/19 10:19:11;;;;;;;2.55;2.35;;;;;;;11.05;100.00;99842.53;6182528;23;20045;-90
2023/04/19 10:21:37;;;;;;;2.28;1.88;;;;;;;10.96;100.00;99827.78;6156091;23;20100;-91
2023/04/19 10:24:03;;;;;;;2.40;2.20;;;;;;;11.12;100.00;99839.53;6130857;23;20017;-92
2023/04/19 10:26:29;;;;;;;1.80;1.70;;;;;;;11.15;100.00;99827.56;6156405;23;20043;-92
2023/04/19 10:28:56;;;;;;;3.20;2.97;;;;;;;11.24;100.00;99849.84;6181280;23;20040;-91
2023/04/19 10:31:22;;;;;;;5.18;3.88;;;;;;;11.13;100.00;99815.31;6131206;23;20485;-92
2023/04/19 10:33:49;;;;;;;2.05;1.77;;;;;;;11.08;100.00;99791.69;6155507;23;20091;-91
2023/04/19 10:36:16;;;;;;;2.42;1.55;;;;;;;11.35;100.00;99804.31;6131768;23;20458;-92
2023/04/19 10:38:47;;;;;;;1.48;1.40;;;;;;;11.74;100.00;99834.34;6156209;23;20056;-91
2023/04/19 10:41:17;;;;;;;4.53;2.65;;;;;;;11.50;100.00;99797.03;6182453;23;20455;-92
2023/04/19 10:44:07;;;;;;;2.70;2.50;;;;;;;11.86;100.00;99822.41;6130356;23;20005;-92
2023/04/19 10:46:34;;;;;;;2.72;2.53;;;;;;;11.91;100.00;99830.16;6181987;23;20017;-92
2023/04/19 10:49:01;;;;;;;1.85;1.48;;;;;;;11.87;100.00;99825.94;6155441;23;20040;-92
2023/04/19 10:51:37;;;;;;;2.58;2.38;;;;;;;11.80;100.00;99815.88;6131187;23;20020;-91
2023/04/19 10:54:29;;;;;;;0.70;0.70;;;;;;;11.73;100.00;99824.44;6155279;23;20192;-92
2023/04/19 10:56:56;;;;;;;2.75;2.55;;;;;;;11.79;100.00;99830.22;6170903;23;20021;-92
2023/04/19 10:59:22;;;;;;;1.83;1.67;;;;;;;11.72;100.00;99814.56;6130891;23;20021;-93
2023/04/19 11:01:59;;;;;;;3.85;1.85;;;;;;;11.82;100.00;99824.53;6155251;23;20480;-91
2023/04/19 11:04:31;;;;;;;2.33;2.13;;;;;;;11.91;100.00;99827.38;6155215;23;20056;-92
2023/04/19 11:07:00;;;;;;;2.88;2.33;;;;;;;11.86;100.00;99808.50;6181457;23;20013;-92
2023/04/19 11:09:25;;;;;;;2.67;2.47;;;;;;;11.90;100.00;99816.69;6155702;23;20009;-93
2023/04/19 11:11:52;;;;;;;2.97;2.78;;;;;;;11.88;100.00;99794.16;6181416;23;20087;-92
2023/04/19 11:14:19;;;;;;;2.75;1.90;;;;;;;11.78;100.00;99818.31;6129864;23;20009;-91
2023/04/19 11:16:45;;;;;;;2.33;2.13;;;;;;;11.66;100.00;99805.22;6129845;23;20021;-92
2023/04/19 11:19:15;;;;;;;3.25;1.92;;;;;;;11.69;100.00;99816.19;6130803;23;20024;-92
2023/04/19 11:21:40;;;;;;;1.88;1.70;;;;;;;11.50;100.00;99769.25;6130709;23;20021;-92
2023/04/19 11:24:09;;;;;;;1.67;1.38;;;;;;;11.84;100.00;99805.41;6154195;23;20025;-91
2023/04/19 11:26:35;;;;;;;2.45;2.25;;;;;;;11.93;100.00;99813.78;6181715;23;20017;-91
2023/04/19 11:29:01;;;;;;;2.05;1.83;;;;;;;11.91;100.00;99810.72;6154871;23;20036;-91
2023/04/19 11:31:27;;;;;;;3.17;2.92;;;;;;;11.96;100.00;99795.44;6155275;23;20017;-92
2023/04/19 11:33:53;;;;;;;4.68;2.83;;;;;;;12.19;100.00;99819.25;6154901;23;20048;-92
2023/04/19 11:36:19;;;;;;;4.65;4.25;;;;;;;12.27;100.00;99803.84;6155582;23;20013;-92
2023/04/19 11:38:48;;;;;;;1.08;0.85;;;;;;;12.30;100.00;99791.81;6156000;23;20393;-92
2023/04/19 11:41:14;;;;;;;4.65;2.28;;;;;;;12.34;100.00;99795.22;6155756;23;20023;-92
2023/04/19 11:43:40;;;;;;;5.85;2.42;;;;;;;12.53;100.00;99799.69;6154676;23;20025;-91
2023/04/19 11:46:07;;;;;;;6.15;2.90;;;;;;;12.70;100.00;99803.75;6128792;23;20032;-92
2023/04/19 11:48:33;;;;;;;2.85;1.63;;;;;;;12.86;100.00;99809.09;6130300;23;20013;-91
2023/04/19 11:50:59;;;;;;;1.75;1.65;;;;;;;12.73;100.00;99779.81;6130375;23;20017;-91
2023/04/19 11:53:26;;;;;;;4.45;2.55;;;;;;;12.90;100.00;99790.22;6155004;23;20016;-90
2023/04/19 11:55:51;;;;;;;2.33;1.55;;;;;;;12.97;100.00;99803.88;6130434;23;20017;-91